Time;durP1;ratioP1;P1;durP2;ratioP2;P2;SDS_P1;SDS_P2;PMS_P1;PMS_P2;Temp;Humidity;BMP_temperature;BMP_pressure;BME280_temperature;BME280_humidity;BME280_pressure;Samples;Min_cycle;Max_cycle;Signal;HPM_P1;HPM_P2
2021/11/20 00:00:01;;;;;;;21.95;6.95;;;;;;;;;;4986642;28;20033;-60
2021/11/20 00:02:29;;;;;;;26.67;7.90;;;;;;;;;;4986573;28;20045;-61
2021/11/20 00:04:58;;;;;;;19.35;7.45;;;;;;;;;;4986528;28;20038;-61
2021/11/20 00:07:26;;;;;;;18.98;6.97;;;;;;;;;;4986798;28;20025;-60
2021/11/20 00:09:52;;;;;;;21.85;7.72;;;;;;;;;;4986945;28;20030;-60
2021/11/20 00:12:28;;;;;;;21.67;7.20;;;;;;;;;;4968888;28;21863;-59
2021/11/20 00:14:55;;;;;;;20.27;7.60;;;;;;;;;;4967113;28;20037;-61
2021/11/20 00:17:21;;;;;;;22.25;9.05;;;;;;;;;;4984744;28;20060;-62
2021/11/20 00:19:49;;;;;;;21.00;7.55;;;;;;;;;;4987275;28;20060;-60
2021/11/20 00:22:20;;;;;;;27.73;8.48;;;;;;;;;;4986670;28;20119;-60
2021/11/20 00:24:53;;;;;;;18.73;7.75;;;;;;;;;;4985113;28;20582;-60
2021/11/20 00:27:22;;;;;;;23.65;7.78;;;;;;;;;;4986624;28;20133;-59
2021/11/20 00:32:40;;;;;;;23.73;8.18;;;;;;;;;;4985589;28;20317;-60
2021/11/20 00:35:07;;;;;;;20.67;9.07;;;;;;;;;;4986173;28;20054;-60
2021/11/20 00:37:39;;;;;;;19.35;7.78;;;;;;;;;;4984930;28;20033;-61
2021/11/20 00:40:11;;;;;;;32.13;8.48;;;;;;;;;;4980933;28;20078;-60
2021/11/20 00:42:39;;;;;;;22.02;7.60;;;;;;;;;;4986347;28;20959;-61
2021/11/20 00:45:05;;;;;;;27.73;8.32;;;;;;;;;;4970154;28;20034;-60
2021/11/20 00:47:34;;;;;;;15.80;7.60;;;;;;;;;;4988234;28;20131;-61
2021/11/20 00:50:02;;;;;;;32.83;7.65;;;;;;;;;;4983869;28;20151;-60
2021/11/20 00:52:32;;;;;;;29.33;7.78;;;;;;;;;;4986086;28;20152;-60
2021/11/20 00:54:57;;;;;;;22.40;7.40;;;;;;;;;;4987043;28;20046;-58
2021/11/20 00:57:27;;;;;;;26.20;8.38;;;;;;;;;;4983529;28;20030;-59
2021/11/20 00:59:55;;;;;;;24.83;7.85;;;;;;;;;;5000518;28;20446;-60
2021/11/20 01:02:21;;;;;;;16.55;8.07;;;;;;;;;;4982216;28;20477;-59
2021/11/20 01:04:46;;;;;;;21.08;8.35;;;;;;;;;;4983270;28;20046;-59
2021/11/20 01:07:12;;;;;;;32.22;8.20;;;;;;;;;;4983517;28;20026;-61
2021/11/20 01:09:43;;;;;;;28.20;8.88;;;;;;;;;;4985314;28;20041;-61
2021/11/20 01:12:30;;;;;;;22.58;8.63;;;;;;;;;;4985915;28;20034;-59
2021/11/20 01:15:00;;;;;;;25.55;8.35;;;;;;;;;;4983785;28;20172;-59
2021/11/20 01:17:32;;;;;;;16.90;8.18;;;;;;;;;;5000548;28;20050;-60
2021/11/20 01:19:59;;;;;;;26.17;8.82;;;;;;;;;;4999976;28;20033;-59
2021/11/20 01:22:25;;;;;;;29.33;8.85;;;;;;;;;;4982644;28;20040;-60
2021/11/20 01:24:51;;;;;;;23.02;8.38;;;;;;;;;;4998162;28;21049;-59
2021/11/20 01:27:17;;;;;;;19.73;8.40;;;;;;;;;;4979991;28;20041;-59
2021/11/20 01:29:44;;;;;;;21.38;7.30;;;;;;;;;;4984030;28;20057;-61
2021/11/20 01:32:13;;;;;;;28.90;8.32;;;;;;;;;;4998427;28;20639;-59
2021/11/20 01:34:41;;;;;;;23.40;7.97;;;;;;;;;;4986260;28;20057;-60
2021/11/20 01:37:15;;;;;;;27.40;6.90;;;;;;;;;;4983006;28;20030;-60
2021/11/20 01:39:44;;;;;;;26.60;8.30;;;;;;;;;;4983099;28;20053;-60
2021/11/20 01:42:22;;;;;;;27.15;8.77;;;;;;;;;;4984298;28;20403;-59
2021/11/20 01:44:55;;;;;;;19.52;7.72;;;;;;;;;;4984720;28;20053;-59
2021/11/20 01:47:26;;;;;;;21.00;8.23;;;;;;;;;;4984617;28;20038;-59
2021/11/20 01:50:03;;;;;;;26.05;7.95;;;;;;;;;;4985126;28;20117;-60
2021/11/20 01:52:50;;;;;;;24.85;8.40;;;;;;;;;;4982207;28;20116;-61
2021/11/20 01:55:23;;;;;;;18.55;7.07;;;;;;;;;;4983673;28;20037;-60
2021/11/20 01:57:59;;;;;;;24.00;7.88;;;;;;;;;;4998743;28;22094;-60
2021/11/20 02:00:41;;;;;;;39.88;9.73;;;;;;;;;;5000224;28;20034;-60
2021/11/20 02:03:07;;;;;;;19.27;7.95;;;;;;;;;;4983554;28;20104;-60
2021/11/20 02:05:35;;;;;;;25.90;8.45;;;;;;;;;;4986214;28;20100;-60
2021/11/20 02:08:24;;;;;;;20.45;7.93;;;;;;;;;;5000187;28;20049;-60
2021/11/20 02:10:55;;;;;;;16.83;7.03;;;;;;;;;;4974097;28;20390;-61
2021/11/20 02:13:32;;;;;;;20.25;7.65;;;;;;;;;;4985357;28;20125;-60
2021/11/20 02:16:01;;;;;;;22.02;9.20;;;;;;;;;;4983823;28;20037;-60
2021/11/20 02:18:30;;;;;;;27.65;7.78;;;;;;;;;;4984226;28;20032;-60
2021/11/20 02:21:01;;;;;;;25.45;8.65;;;;;;;;;;4964285;28;20034;-60
2021/11/20 02:23:26;;;;;;;23.27;8.98;;;;;;;;;;4999559;28;20030;-60
2021/11/20 02:25:51;;;;;;;22.98;8.63;;;;;;;;;;4981711;28;20081;-60
2021/11/20 02:28:17;;;;;;;26.75;9.13;;;;;;;;;;4999770;28;20458;-60
2021/11/20 02:30:48;;;;;;;27.90;8.82;;;;;;;;;;4979792;28;20036;-57
2021/11/20 02:33:16;;;;;;;22.05;8.57;;;;;;;;;;4999808;28;20137;-59
2021/11/20 02:35:44;;;;;;;25.92;9.57;;;;;;;;;;4982413;28;20417;-60
2021/11/20 02:38:14;;;;;;;23.42;8.55;;;;;;;;;;4996198;28;20065;-60
2021/11/20 02:40:43;;;;;;;29.60;9.57;;;;;;;;;;4982042;28;20279;-61
2021/11/20 02:43:09;;;;;;;18.80;7.97;;;;;;;;;;4997619;28;20128;-60
2021/11/20 02:45:37;;;;;;;24.55;8.65;;;;;;;;;;4985287;28;20107;-59
2021/11/20 02:48:04;;;;;;;28.73;8.65;;;;;;;;;;4984552;28;20026;-59
2021/11/20 02:50:33;;;;;;;23.00;9.07;;;;;;;;;;4983877;28;20029;-61
2021/11/20 02:53:07;;;;;;;23.95;8.45;;;;;;;;;;4984325;28;20057;-59
2021/11/20 02:55:37;;;;;;;24.58;8.25;;;;;;;;;;4982958;28;20033;-61
2021/11/20 02:58:05;;;;;;;18.05;7.68;;;;;;;;;;4983059;28;20137;-61
2021/11/20 03:00:30;;;;;;;20.05;8.57;;;;;;;;;;4986599;28;20041;-60
2021/11/20 03:02:56;;;;;;;22.88;8.38;;;;;;;;;;4978772;28;20046;-60
2021/11/20 03:05:23;;;;;;;28.88;9.15;;;;;;;;;;4983753;28;20033;-61
2021/11/20 03:07:52;;;;;;;30.25;9.75;;;;;;;;;;4998452;28;20068;-60
2021/11/20 03:10:19;;;;;;;25.77;9.00;;;;;;;;;;4997723;28;20917;-60
2021/11/20 03:12:45;;;;;;;26.65;8.73;;;;;;;;;;4982092;28;20026;-59
2021/11/20 03:15:11;;;;;;;24.38;8.57;;;;;;;;;;4982499;28;20034;-60
2021/11/20 03:17:38;;;;;;;26.00;8.07;;;;;;;;;;4987571;28;20034;-59
2021/11/20 03:20:08;;;;;;;35.13;8.73;;;;;;;;;;4986491;28;20042;-60
2021/11/20 03:22:41;;;;;;;23.40;9.13;;;;;;;;;;5000599;28;20030;-59
2021/11/20 03:25:09;;;;;;;31.10;8.88;;;;;;;;;;4977505;28;20041;-59
2021/11/20 03:27:39;;;;;;;21.58;8.45;;;;;;;;;;4985008;28;20026;-59
2021/11/20 03:30:10;;;;;;;19.52;8.40;;;;;;;;;;4982228;28;20030;-60
2021/11/20 03:32:36;;;;;;;23.02;9.02;;;;;;;;;;4985196;28;20034;-60
2021/11/20 03:35:05;;;;;;;21.50;8.43;;;;;;;;;;4981738;28;20065;-60
2021/11/20 03:37:30;;;;;;;21.38;8.88;;;;;;;;;;4984702;28;21076;-60
2021/11/20 03:39:58;;;;;;;30.08;9.38;;;;;;;;;;4965405;28;20042;-60
2021/11/20 03:42:23;;;;;;;21.45;9.57;;;;;;;;;;4981254;28;20120;-59
2021/11/20 03:44:49;;;;;;;23.40;9.40;;;;;;;;;;4984788;28;20068;-59
2021/11/20 03:47:17;;;;;;;26.30;9.38;;;;;;;;;;4996394;28;20030;-60
2021/11/20 03:49:43;;;;;;;30.42;9.23;;;;;;;;;;4963538;28;21109;-59
2021/11/20 03:52:12;;;;;;;24.67;10.15;;;;;;;;;;4984083;28;20436;-59
2021/11/20 03:54:38;;;;;;;26.05;8.73;;;;;;;;;;4987997;28;20030;-59
2021/11/20 03:57:08;;;;;;;20.73;9.80;;;;;;;;;;4969731;28;20033;-59
2021/11/20 03:59:38;;;;;;;25.02;9.40;;;;;;;;;;4985896;28;20083;-61
2021/11/20 04:02:11;;;;;;;27.70;9.80;;;;;;;;;;4967199;28;20057;-60
2021/11/20 04:04:39;;;;;;;27.20;9.80;;;;;;;;;;4987526;28;20034;-59
2021/11/20 04:07:07;;;;;;;22.77;9.00;;;;;;;;;;4970391;28;20021;-60
2021/11/20 04:09:33;;;;;;;24.08;9.93;;;;;;;;;;4986977;28;20300;-61
2021/11/20 04:11:58;;;;;;;22.92;9.30;;;;;;;;;;4985483;28;20046;-60
2021/11/20 04:14:26;;;;;;;25.88;9.13;;;;;;;;;;4986623;28;20105;-58
2021/11/20 04:16:52;;;;;;;25.30;9.90;;;;;;;;;;4985271;28;20029;-60
2021/11/20 04:19:18;;;;;;;23.35;8.88;;;;;;;;;;4986171;28;21395;-60
2021/11/20 04:21:44;;;;;;;24.58;9.07;;;;;;;;;;4984420;28;20176;-61
2021/11/20 04:24:12;;;;;;;29.95;10.07;;;;;;;;;;4987272;28;20034;-59
2021/11/20 04:26:43;;;;;;;26.20;10.07;;;;;;;;;;4984506;28;20034;-58
2021/11/20 04:29:11;;;;;;;30.30;10.02;;;;;;;;;;4982850;28;20064;-61
2021/11/20 04:31:37;;;;;;;27.25;9.30;;;;;;;;;;4986460;28;21013;-59
2021/11/20 04:34:05;;;;;;;22.52;9.57;;;;;;;;;;4998473;28;20064;-60
2021/11/20 04:36:33;;;;;;;30.08;9.63;;;;;;;;;;4986685;28;20036;-61
2021/11/20 04:38:58;;;;;;;24.90;9.75;;;;;;;;;;4984249;28;20052;-61
2021/11/20 04:41:26;;;;;;;27.00;10.65;;;;;;;;;;4982571;28;20453;-60
2021/11/20 04:43:52;;;;;;;34.25;10.45;;;;;;;;;;4985818;28;20544;-60
2021/11/20 04:46:19;;;;;;;29.63;10.20;;;;;;;;;;4986527;28;20373;-60
2021/11/20 04:48:47;;;;;;;35.67;11.02;;;;;;;;;;4983600;28;20037;-60
2021/11/20 04:51:13;;;;;;;29.88;10.45;;;;;;;;;;4981250;28;20100;-59
2021/11/20 04:53:39;;;;;;;30.70;10.43;;;;;;;;;;4983949;28;20572;-59
2021/11/20 04:56:08;;;;;;;32.00;10.70;;;;;;;;;;4983181;28;20097;-60
2021/11/20 04:58:33;;;;;;;25.23;10.35;;;;;;;;;;4983075;28;20044;-58
2021/11/20 05:01:07;;;;;;;27.60;10.13;;;;;;;;;;4985614;28;20037;-60
2021/11/20 05:03:33;;;;;;;25.00;10.43;;;;;;;;;;4982025;28;20085;-61
2021/11/20 05:06:04;;;;;;;29.92;10.20;;;;;;;;;;4981933;28;20045;-60
2021/11/20 05:08:34;;;;;;;28.13;9.65;;;;;;;;;;4985737;28;20033;-60
2021/11/20 05:11:05;;;;;;;23.40;10.25;;;;;;;;;;4984482;28;20458;-59
2021/11/20 05:13:30;;;;;;;31.67;9.45;;;;;;;;;;4984837;28;20058;-60
2021/11/20 05:16:00;;;;;;;24.73;9.70;;;;;;;;;;4982558;28;20022;-60
2021/11/20 05:18:26;;;;;;;17.58;9.15;;;;;;;;;;4983831;28;20981;-59
2021/11/20 05:20:52;;;;;;;23.98;9.43;;;;;;;;;;5001789;28;20040;-61
2021/11/20 05:23:18;;;;;;;29.90;10.30;;;;;;;;;;4983686;28;20120;-60
2021/11/20 05:25:47;;;;;;;29.38;10.23;;;;;;;;;;5000320;28;20962;-59
2021/11/20 05:28:13;;;;;;;32.58;10.80;;;;;;;;;;4983716;28;20030;-60
2021/11/20 05:30:40;;;;;;;28.60;11.00;;;;;;;;;;4984913;28;21037;-60
2021/11/20 05:33:31;;;;;;;20.15;9.45;;;;;;;;;;4986124;28;20125;-60
2021/11/20 05:35:57;;;;;;;31.17;10.18;;;;;;;;;;4999125;28;20044;-60
2021/11/20 05:38:22;;;;;;;32.80;10.80;;;;;;;;;;4982860;28;20147;-59
2021/11/20 05:40:48;;;;;;;37.63;11.05;;;;;;;;;;4981888;28;20034;-59
2021/11/20 05:43:16;;;;;;;34.83;10.50;;;;;;;;;;4981547;28;20044;-60
2021/11/20 05:45:45;;;;;;;32.53;9.63;;;;;;;;;;4984705;28;21989;-60
2021/11/20 05:48:11;;;;;;;30.52;10.95;;;;;;;;;;4963053;28;20034;-59
2021/11/20 05:50:41;;;;;;;24.35;10.13;;;;;;;;;;4982774;28;20061;-59
2021/11/20 05:53:12;;;;;;;33.85;10.88;;;;;;;;;;4999881;28;20142;-60
2021/11/20 05:55:40;;;;;;;25.77;10.75;;;;;;;;;;4981546;28;20030;-60
2021/11/20 05:58:06;;;;;;;23.23;9.88;;;;;;;;;;4984297;28;20994;-60
2021/11/20 06:00:33;;;;;;;26.90;10.27;;;;;;;;;;4998418;28;20053;-60
2021/11/20 06:03:00;;;;;;;26.25;10.77;;;;;;;;;;4984493;28;20527;-61
2021/11/20 06:05:29;;;;;;;26.23;10.38;;;;;;;;;;4983663;28;20042;-60
2021/11/20 06:07:57;;;;;;;30.38;10.70;;;;;;;;;;4981457;28;20580;-59
2021/11/20 06:10:25;;;;;;;29.65;11.05;;;;;;;;;;4983187;28;20733;-61
2021/11/20 06:12:50;;;;;;;27.65;11.35;;;;;;;;;;4982217;28;20113;-60
2021/11/20 06:15:19;;;;;;;26.75;10.85;;;;;;;;;;4984661;28;20620;-61
2021/11/20 06:17:46;;;;;;;25.10;10.30;;;;;;;;;;4982022;28;20093;-59
2021/11/20 06:20:14;;;;;;;24.58;10.55;;;;;;;;;;4982546;28;20044;-59
2021/11/20 06:22:43;;;;;;;24.33;10.25;;;;;;;;;;4983289;28;20046;-60
2021/11/20 06:25:11;;;;;;;25.25;11.18;;;;;;;;;;4998366;28;20120;-60
2021/11/20 06:27:37;;;;;;;27.05;11.57;;;;;;;;;;4983233;28;20030;-60
2021/11/20 06:30:09;;;;;;;22.90;11.32;;;;;;;;;;4984058;28;20030;-60
2021/11/20 06:32:40;;;;;;;33.63;11.07;;;;;;;;;;4980482;28;20044;-60
2021/11/20 06:35:07;;;;;;;31.52;10.82;;;;;;;;;;4984636;28;20060;-59
2021/11/20 06:37:33;;;;;;;25.73;10.02;;;;;;;;;;4960340;28;20921;-61
2021/11/20 06:39:58;;;;;;;28.02;11.30;;;;;;;;;;5001567;28;20038;-59
2021/11/20 06:42:27;;;;;;;25.85;11.40;;;;;;;;;;4981487;28;20038;-59
2021/11/20 06:44:57;;;;;;;25.25;10.55;;;;;;;;;;4981381;28;20121;-59
2021/11/20 06:47:24;;;;;;;26.67;11.00;;;;;;;;;;4966232;28;20106;-60
2021/11/20 06:49:57;;;;;;;20.40;10.02;;;;;;;;;;4985495;28;20034;-60
2021/11/20 06:52:25;;;;;;;26.02;10.23;;;;;;;;;;4983010;28;20057;-59
2021/11/20 06:54:51;;;;;;;32.33;10.70;;;;;;;;;;4984660;28;20124;-60
2021/11/20 06:57:37;;;;;;;26.20;10.55;;;;;;;;;;4965120;28;22132;-59
2021/11/20 07:02:48;;;;;;;29.27;11.02;;;;;;;;;;4984346;28;20038;-60
2021/11/20 07:05:13;;;;;;;24.00;10.10;;;;;;;;;;4983692;28;20041;-60
2021/11/20 07:07:41;;;;;;;23.70;11.13;;;;;;;;;;4984422;28;20125;-61
2021/11/20 07:10:09;;;;;;;38.13;11.98;;;;;;;;;;4983745;28;20037;-60
2021/11/20 07:12:35;;;;;;;26.08;10.48;;;;;;;;;;5001334;28;20042;-59
2021/11/20 07:15:03;;;;;;;26.02;10.60;;;;;;;;;;4983731;28;20041;-60
2021/11/20 07:17:31;;;;;;;32.28;12.25;;;;;;;;;;4985258;28;20021;-59
2021/11/20 07:19:57;;;;;;;36.08;12.60;;;;;;;;;;4985318;28;20053;-61
2021/11/20 07:22:22;;;;;;;26.65;11.95;;;;;;;;;;4986200;28;20025;-61
2021/11/20 07:24:49;;;;;;;27.50;11.38;;;;;;;;;;4986156;28;21682;-60
2021/11/20 07:27:16;;;;;;;28.23;11.73;;;;;;;;;;4986679;28;20033;-59
2021/11/20 07:29:47;;;;;;;22.33;10.50;;;;;;;;;;4987165;28;20356;-60
2021/11/20 07:32:15;;;;;;;34.65;11.10;;;;;;;;;;4987510;28;20045;-59
2021/11/20 07:34:40;;;;;;;23.70;11.63;;;;;;;;;;4988437;28;20085;-59
2021/11/20 07:37:08;;;;;;;22.95;10.60;;;;;;;;;;4988572;28;20040;-60
2021/11/20 07:39:37;;;;;;;29.55;11.18;;;;;;;;;;5006028;28;20034;-60
2021/11/20 07:42:02;;;;;;;29.42;11.98;;;;;;;;;;4988560;28;20030;-59
2021/11/20 07:44:28;;;;;;;25.73;10.45;;;;;;;;;;4988598;28;20033;-60
2021/11/20 07:46:56;;;;;;;24.67;10.38;;;;;;;;;;4989052;28;20038;-59
2021/11/20 07:49:21;;;;;;;24.42;11.40;;;;;;;;;;4984567;28;20026;-60
2021/11/20 07:51:47;;;;;;;22.45;9.65;;;;;;;;;;4990626;28;20084;-59
2021/11/20 07:54:15;;;;;;;26.13;10.73;;;;;;;;;;4999950;28;20533;-61
2021/11/20 07:56:43;;;;;;;25.75;10.57;;;;;;;;;;4984379;28;20125;-63
2021/11/20 07:59:10;;;;;;;21.90;9.48;;;;;;;;;;4986501;28;20022;-60
2021/11/20 08:01:36;;;;;;;22.00;10.55;;;;;;;;;;4988040;28;20527;-60
2021/11/20 08:04:04;;;;;;;21.63;10.32;;;;;;;;;;4970697;28;20555;-60
2021/11/20 08:06:30;;;;;;;21.75;10.35;;;;;;;;;;4989549;28;20513;-59
2021/11/20 08:09:03;;;;;;;20.95;9.50;;;;;;;;;;5002210;28;20557;-60
2021/11/20 08:11:30;;;;;;;21.20;10.02;;;;;;;;;;4989809;28;20036;-60
2021/11/20 08:17:31;;;;;;;24.63;11.07;;;;;;;;;;4985888;28;20060;-59
2021/11/20 08:20:03;;;;;;;23.73;10.07;;;;;;;;;;4984166;28;20033;-59
2021/11/20 08:22:31;;;;;;;22.30;11.18;;;;;;;;;;4982870;28;20136;-60
2021/11/20 08:24:56;;;;;;;24.23;10.73;;;;;;;;;;4968300;28;20810;-60
2021/11/20 08:27:22;;;;;;;24.80;11.43;;;;;;;;;;4968513;28;20053;-59
2021/11/20 08:29:47;;;;;;;33.53;12.10;;;;;;;;;;4985650;28;20021;-58
2021/11/20 08:32:13;;;;;;;23.63;12.13;;;;;;;;;;4983931;28;20702;-59
2021/11/20 08:34:40;;;;;;;27.70;12.70;;;;;;;;;;4984209;28;20633;-59
2021/11/20 08:37:11;;;;;;;26.33;11.70;;;;;;;;;;4985939;28;20046;-61
2021/11/20 08:39:37;;;;;;;32.13;12.75;;;;;;;;;;4984642;28;20044;-60
2021/11/20 08:42:03;;;;;;;23.65;12.13;;;;;;;;;;4982363;28;20025;-60
2021/11/20 08:44:29;;;;;;;24.52;12.05;;;;;;;;;;4983025;28;20928;-59
2021/11/20 08:46:57;;;;;;;24.27;12.02;;;;;;;;;;4985449;28;20034;-59
2021/11/20 08:49:26;;;;;;;28.85;11.95;;;;;;;;;;4985863;28;20091;-59
2021/11/20 08:51:52;;;;;;;28.67;12.50;;;;;;;;;;4982832;28;20073;-59
2021/11/20 08:54:23;;;;;;;22.58;11.27;;;;;;;;;;4996948;28;20592;-61
2021/11/20 08:56:49;;;;;;;29.70;12.43;;;;;;;;;;4998924;28;20034;-61
2021/11/20 08:59:16;;;;;;;28.65;13.57;;;;;;;;;;4983198;28;20040;-61
2021/11/20 09:01:43;;;;;;;29.48;12.93;;;;;;;;;;4983068;28;20592;-60
2021/11/20 09:04:09;;;;;;;26.42;13.60;;;;;;;;;;4999785;28;20145;-61
2021/11/20 09:06:43;;;;;;;27.13;12.35;;;;;;;;;;4982856;28;20042;-60
2021/11/20 09:09:33;;;;;;;26.02;11.98;;;;;;;;;;4983005;28;20029;-60
2021/11/20 09:12:02;;;;;;;25.02;13.07;;;;;;;;;;4985463;28;20110;-59
2021/11/20 09:14:35;;;;;;;35.95;13.57;;;;;;;;;;4983043;28;20464;-59
2021/11/20 09:17:03;;;;;;;25.02;12.27;;;;;;;;;;4982779;28;20088;-59
2021/11/20 09:19:35;;;;;;;25.73;12.95;;;;;;;;;;4964024;28;20037;-59
2021/11/20 09:22:03;;;;;;;32.13;13.20;;;;;;;;;;4984052;28;20029;-59
2021/11/20 09:24:31;;;;;;;29.17;12.80;;;;;;;;;;4981750;28;20513;-59
2021/11/20 09:26:56;;;;;;;24.80;12.40;;;;;;;;;;4997678;28;20053;-59
2021/11/20 09:29:23;;;;;;;20.25;12.23;;;;;;;;;;4983114;28;20101;-59
2021/11/20 09:31:50;;;;;;;25.52;13.65;;;;;;;;;;4981618;28;20033;-58
2021/11/20 09:34:18;;;;;;;23.80;11.75;;;;;;;;;;4983224;28;20227;-59
2021/11/20 09:36:45;;;;;;;30.17;13.35;;;;;;;;;;4983585;28;20034;-60
2021/11/20 09:39:11;;;;;;;31.45;13.73;;;;;;;;;;4981678;28;20097;-59
2021/11/20 09:41:56;;;;;;;32.22;14.23;;;;;;;;;;5000226;28;20037;-60
2021/11/20 09:44:21;;;;;;;28.63;14.37;;;;;;;;;;4981449;28;22046;-59
2021/11/20 09:46:49;;;;;;;31.00;12.65;;;;;;;;;;4982809;28;20042;-60
2021/11/20 09:49:20;;;;;;;26.45;12.75;;;;;;;;;;4982118;28;20036;-60
2021/11/20 09:51:48;;;;;;;27.20;14.27;;;;;;;;;;4987197;28;20941;-59
2021/11/20 09:54:22;;;;;;;32.30;14.15;;;;;;;;;;4984245;28;20026;-60
2021/11/20 09:56:52;;;;;;;31.80;14.77;;;;;;;;;;4990491;28;20053;-60
2021/11/20 09:59:25;;;;;;;29.88;15.02;;;;;;;;;;4981456;28;20737;-60
2021/11/20 10:02:06;;;;;;;25.30;13.27;;;;;;;;;;4982699;28;20135;-59
2021/11/20 10:04:52;;;;;;;28.83;12.88;;;;;;;;;;4978738;28;20021;-60
2021/11/20 10:07:26;;;;;;;29.48;14.07;;;;;;;;;;4983118;28;20038;-60
2021/11/20 10:09:54;;;;;;;28.25;13.85;;;;;;;;;;4982244;28;21042;-60
2021/11/20 10:12:28;;;;;;;32.60;14.23;;;;;;;;;;4984500;28;20049;-60
2021/11/20 10:14:58;;;;;;;32.75;14.35;;;;;;;;;;4982409;28;20026;-60
2021/11/20 10:17:26;;;;;;;36.13;15.13;;;;;;;;;;4985192;28;20037;-60
2021/11/20 10:19:54;;;;;;;31.90;16.10;;;;;;;;;;4986963;28;20034;-60
2021/11/20 10:22:19;;;;;;;33.05;15.32;;;;;;;;;;4978100;28;20127;-59
2021/11/20 10:25:05;;;;;;;34.78;15.20;;;;;;;;;;4985234;28;20030;-60
2021/11/20 10:27:30;;;;;;;35.45;15.13;;;;;;;;;;4982922;28;20088;-60
2021/11/20 10:30:17;;;;;;;35.63;15.18;;;;;;;;;;4984268;28;20034;-60
2021/11/20 10:32:42;;;;;;;37.20;16.05;;;;;;;;;;4984685;28;20040;-59
2021/11/20 10:35:17;;;;;;;32.78;14.70;;;;;;;;;;4984236;28;20996;-61
2021/11/20 10:38:03;;;;;;;30.23;14.88;;;;;;;;;;4999534;28;20053;-58
2021/11/20 10:40:49;;;;;;;33.20;15.55;;;;;;;;;;4986815;28;21828;-60
2021/11/20 10:43:14;;;;;;;29.15;14.82;;;;;;;;;;4984470;28;20057;-60
2021/11/20 10:45:46;;;;;;;32.97;15.90;;;;;;;;;;4983316;28;20064;-60
2021/11/20 10:48:34;;;;;;;30.67;15.00;;;;;;;;;;4985427;28;20030;-60
2021/11/20 10:51:12;;;;;;;34.17;16.10;;;;;;;;;;4973826;28;20053;-59
2021/11/20 10:53:44;;;;;;;29.95;14.68;;;;;;;;;;4981108;28;20069;-58
2021/11/20 10:56:15;;;;;;;30.70;15.27;;;;;;;;;;4995558;28;20747;-60
2021/11/20 10:58:54;;;;;;;29.20;14.70;;;;;;;;;;4979223;28;20057;-59
2021/11/20 11:01:28;;;;;;;32.40;15.80;;;;;;;;;;4995945;28;20029;-60
2021/11/20 11:04:00;;;;;;;34.75;16.45;;;;;;;;;;5003097;28;20076;-59
2021/11/20 11:06:37;;;;;;;25.52;14.25;;;;;;;;;;5000557;28;20038;-61
2021/11/20 11:09:03;;;;;;;31.27;15.65;;;;;;;;;;5002588;28;22011;-59
2021/11/20 11:11:31;;;;;;;29.15;15.70;;;;;;;;;;4985864;28;20101;-59
2021/11/20 11:14:11;;;;;;;31.45;15.70;;;;;;;;;;4989607;28;21178;-59
2021/11/20 11:16:42;;;;;;;30.73;14.52;;;;;;;;;;4988191;28;20048;-60
2021/11/20 11:19:11;;;;;;;35.20;15.20;;;;;;;;;;5001805;28;20443;-60
2021/11/20 11:21:40;;;;;;;36.72;15.98;;;;;;;;;;4987833;28;20045;-59
2021/11/20 11:24:26;;;;;;;34.70;16.20;;;;;;;;;;4987431;28;20029;-61
2021/11/20 11:27:00;;;;;;;43.17;18.63;;;;;;;;;;4982492;28;20897;-60
2021/11/20 11:29:25;;;;;;;29.73;15.63;;;;;;;;;;4977980;28;20062;-60
2021/11/20 11:31:54;;;;;;;35.28;16.63;;;;;;;;;;4968518;28;20121;-59
2021/11/20 11:34:27;;;;;;;39.13;17.40;;;;;;;;;;4982016;28;21036;-60
2021/11/20 11:37:05;;;;;;;37.92;16.83;;;;;;;;;;4986262;28;20029;-58
2021/11/20 11:39:40;;;;;;;37.85;17.95;;;;;;;;;;4984832;28;20658;-62
2021/11/20 11:42:06;;;;;;;38.50;17.42;;;;;;;;;;4986541;28;20037;-60
2021/11/20 11:44:52;;;;;;;44.95;17.40;;;;;;;;;;4984912;28;20054;-59
2021/11/20 11:47:26;;;;;;;35.97;16.88;;;;;;;;;;4975552;28;20068;-60
2021/11/20 11:50:21;;;;;;;38.65;17.33;;;;;;;;;;4988095;28;20510;-58
2021/11/20 11:52:57;;;;;;;45.55;17.60;;;;;;;;;;4883236;28;20047;-60
2021/11/20 11:55:23;;;;;;;38.53;17.75;;;;;;;;;;4985828;28;20033;-60
2021/11/20 11:58:04;;;;;;;44.88;19.10;;;;;;;;;;4985660;28;20025;-61
2021/11/20 12:00:37;;;;;;;39.85;16.65;;;;;;;;;;4985430;28;20037;-60
2021/11/20 12:03:07;;;;;;;41.67;16.92;;;;;;;;;;4998819;28;20018;-59
2021/11/20 12:05:38;;;;;;;47.35;20.30;;;;;;;;;;4983191;28;21892;-59
2021/11/20 12:08:39;;;;;;;44.70;18.95;;;;;;;;;;4999281;28;22037;-60
2021/11/20 12:11:11;;;;;;;49.90;16.75;;;;;;;;;;4922333;28;20063;-60
2021/11/20 12:13:38;;;;;;;46.60;17.17;;;;;;;;;;4974051;28;20840;-61
2021/11/20 12:16:32;;;;;;;47.03;18.23;;;;;;;;;;4981180;28;20033;-60
2021/11/20 12:19:26;;;;;;;44.58;18.08;;;;;;;;;;4976619;28;20041;-60
2021/11/20 12:21:59;;;;;;;42.80;18.38;;;;;;;;;;4979952;28;20061;-59
2021/11/20 12:24:41;;;;;;;41.80;17.33;;;;;;;;;;4981475;28;20478;-60
2021/11/20 12:27:22;;;;;;;42.30;17.27;;;;;;;;;;4984046;28;20163;-60
2021/11/20 12:30:07;;;;;;;40.60;16.15;;;;;;;;;;4984265;28;20105;-60
2021/11/20 12:32:53;;;;;;;34.90;14.70;;;;;;;;;;4983598;28;20555;-59
2021/11/20 12:35:33;;;;;;;43.10;16.50;;;;;;;;;;4961836;28;1133728;-59
2021/11/20 12:38:10;;;;;;;43.10;17.52;;;;;;;;;;4984338;28;20037;-59
2021/11/20 12:40:36;;;;;;;38.35;16.00;;;;;;;;;;4984410;28;21095;-59
2021/11/20 12:43:07;;;;;;;42.97;17.30;;;;;;;;;;4985324;28;20068;-59
2021/11/20 12:45:44;;;;;;;39.22;16.13;;;;;;;;;;4984644;28;21949;-59
2021/11/20 12:48:11;;;;;;;47.20;18.85;;;;;;;;;;4983047;28;20042;-59
2021/11/20 12:51:06;;;;;;;45.47;16.02;;;;;;;;;;4983162;28;20029;-58
2021/11/20 12:53:50;;;;;;;38.08;16.63;;;;;;;;;;4982320;28;20129;-60
2021/11/20 12:56:17;;;;;;;41.40;16.75;;;;;;;;;;5000323;28;20910;-60
2021/11/20 12:58:51;;;;;;;38.75;16.50;;;;;;;;;;4984828;28;20030;-60
2021/11/20 13:01:21;;;;;;;42.03;16.20;;;;;;;;;;4986019;28;20041;-60
2021/11/20 13:04:05;;;;;;;38.83;16.25;;;;;;;;;;4985585;28;20049;-61
2021/11/20 13:06:32;;;;;;;46.72;17.00;;;;;;;;;;4997634;28;20048;-61
2021/11/20 13:08:58;;;;;;;41.08;16.25;;;;;;;;;;4985233;28;20049;-60
2021/11/20 13:11:35;;;;;;;42.97;16.23;;;;;;;;;;4987271;28;20176;-59
2021/11/20 13:14:06;;;;;;;37.17;15.45;;;;;;;;;;4986959;28;20038;-60
2021/11/20 13:16:40;;;;;;;39.42;16.27;;;;;;;;;;4987181;28;20057;-60
2021/11/20 13:19:08;;;;;;;35.78;15.63;;;;;;;;;;4985433;28;20038;-59
2021/11/20 13:21:47;;;;;;;38.95;16.48;;;;;;;;;;4982689;28;20037;-60
2021/11/20 13:24:20;;;;;;;36.95;15.27;;;;;;;;;;4982341;28;20041;-59
2021/11/20 13:27:06;;;;;;;39.10;16.08;;;;;;;;;;4998268;28;20038;-60
2021/11/20 13:29:36;;;;;;;40.05;15.88;;;;;;;;;;4965639;28;20057;-60
2021/11/20 13:32:08;;;;;;;34.30;15.10;;;;;;;;;;4982789;28;20033;-60
2021/11/20 13:34:36;;;;;;;34.30;15.20;;;;;;;;;;4984635;28;20050;-60
2021/11/20 13:37:09;;;;;;;41.78;16.48;;;;;;;;;;4985250;28;20046;-60
2021/11/20 13:39:35;;;;;;;44.67;15.65;;;;;;;;;;4984779;28;20041;-59
2021/11/20 13:42:01;;;;;;;37.85;14.98;;;;;;;;;;4983471;28;20151;-60
2021/11/20 13:44:26;;;;;;;29.40;13.95;;;;;;;;;;4963024;28;20034;-59
2021/11/20 13:46:53;;;;;;;38.45;17.17;;;;;;;;;;4984717;28;20034;-61
2021/11/20 13:49:19;;;;;;;39.70;15.93;;;;;;;;;;4994092;28;20038;-60
2021/11/20 13:51:44;;;;;;;35.42;15.77;;;;;;;;;;4981194;28;20022;-60
2021/11/20 13:54:11;;;;;;;38.35;15.60;;;;;;;;;;4979712;28;23016;-60
2021/11/20 13:56:40;;;;;;;42.63;14.20;;;;;;;;;;4982245;28;20041;-60
2021/11/20 13:59:10;;;;;;;37.75;13.80;;;;;;;;;;4982088;28;20044;-60
2021/11/20 14:01:42;;;;;;;29.58;14.05;;;;;;;;;;4985884;28;20025;-62
2021/11/20 14:04:10;;;;;;;30.23;14.13;;;;;;;;;;5001005;28;20426;-60
2021/11/20 14:06:39;;;;;;;45.15;14.45;;;;;;;;;;4985931;28;20108;-59
2021/11/20 14:09:09;;;;;;;35.90;13.82;;;;;;;;;;4981526;28;20048;-61
2021/11/20 14:11:45;;;;;;;36.70;14.57;;;;;;;;;;4983657;28;20129;-60
2021/11/20 14:14:17;;;;;;;31.75;13.68;;;;;;;;;;4964472;28;20089;-60
2021/11/20 14:16:42;;;;;;;37.22;13.60;;;;;;;;;;4998149;28;20037;-60
2021/11/20 14:19:11;;;;;;;36.53;12.82;;;;;;;;;;4979721;28;20509;-58
2021/11/20 14:21:37;;;;;;;34.08;13.25;;;;;;;;;;4982821;28;20123;-60
2021/11/20 14:24:07;;;;;;;33.45;12.63;;;;;;;;;;4995688;28;20026;-58
2021/11/20 14:26:46;;;;;;;30.58;12.70;;;;;;;;;;4959556;28;20728;-59
2021/11/20 14:29:23;;;;;;;33.63;12.57;;;;;;;;;;4983977;28;20080;-59
2021/11/20 14:31:48;;;;;;;29.83;12.83;;;;;;;;;;4982933;28;20807;-59
2021/11/20 14:34:17;;;;;;;26.85;10.90;;;;;;;;;;4982070;28;20050;-59
2021/11/20 14:36:49;;;;;;;31.08;11.98;;;;;;;;;;4982075;28;20038;-61
2021/11/20 14:39:35;;;;;;;34.92;11.68;;;;;;;;;;4983819;28;20046;-61
2021/11/20 14:42:04;;;;;;;32.55;11.40;;;;;;;;;;4979237;28;20513;-59
2021/11/20 14:44:33;;;;;;;31.70;11.27;;;;;;;;;;4982367;28;20034;-60
2021/11/20 14:47:03;;;;;;;31.60;12.25;;;;;;;;;;4981955;28;20041;-60